createdAt,value
2019-02-10T00:02:34.936Z,39.70
2019-02-10T00:05:58.616Z,40.93
2019-02-10T00:09:22.458Z,46.47
2019-02-10T00:13:18.231Z,41.40
2019-02-10T00:16:42.422Z,43.27
2019-02-10T00:20:06.920Z,44.90
2019-02-10T00:23:30.672Z,44.00
2019-02-10T00:26:54.361Z,30.73
2019-02-10T00:30:18.102Z,36.10
2019-02-10T00:33:41.828Z,37.70
2019-02-10T00:37:05.555Z,30.33
2019-02-10T00:40:29.126Z,31.23
2019-02-10T00:43:52.845Z,36.03
2019-02-10T00:47:16.515Z,32.10
2019-02-10T00:50:40.295Z,27.80
2019-02-10T00:54:04.035Z,33.70
2019-02-10T00:57:27.838Z,28.07
2019-02-10T01:00:51.532Z,32.97
2019-02-10T01:04:15.298Z,31.63
2019-02-10T01:07:38.835Z,26.03
2019-02-10T01:11:02.658Z,33.50
2019-02-10T01:14:26.431Z,31.70
2019-02-10T01:17:50.076Z,28.40
2019-02-10T01:21:13.685Z,31.50
2019-02-10T01:24:37.455Z,32.07
2019-02-10T01:28:01.073Z,29.00
2019-02-10T01:31:24.677Z,33.60
2019-02-10T01:34:48.426Z,26.70
2019-02-10T01:38:12.050Z,34.27
2019-02-10T01:41:35.805Z,27.30
2019-02-10T01:44:59.821Z,32.70
2019-02-10T01:48:23.568Z,29.67
2019-02-10T01:51:47.243Z,23.53
2019-02-10T01:55:14.125Z,28.33
2019-02-10T01:58:37.697Z,28.30
2019-02-10T02:02:01.447Z,17.53
2019-02-10T02:05:25.075Z,31.00
2019-02-10T02:08:48.596Z,30.27
2019-02-10T02:12:12.387Z,30.47
2019-02-10T02:15:36.165Z,29.80
2019-02-10T02:19:00.278Z,24.33
2019-02-10T02:22:23.896Z,32.80
2019-02-10T02:25:48.007Z,28.07
2019-02-10T02:29:11.771Z,30.80
2019-02-10T02:32:35.580Z,28.27
2019-02-10T02:35:59.222Z,23.73
2019-02-10T02:39:22.915Z,21.97
2019-02-10T02:42:46.490Z,31.30
2019-02-10T02:46:10.353Z,21.20
2019-02-10T02:49:33.963Z,32.70
2019-02-10T02:52:57.616Z,19.07
2019-02-10T02:56:21.319Z,20.53
2019-02-10T02:59:45.088Z,23.00
2019-02-10T03:03:08.835Z,32.53
2019-02-10T03:06:34.164Z,31.37
2019-02-10T03:09:57.923Z,31.97
2019-02-10T03:13:21.665Z,27.13
2019-02-10T03:16:45.245Z,30.67
2019-02-10T03:20:09.816Z,33.10
2019-02-10T03:23:33.599Z,25.97
2019-02-10T03:26:57.168Z,17.03
2019-02-10T03:30:20.897Z,31.17
2019-02-10T03:33:44.568Z,27.90
2019-02-10T03:37:08.358Z,31.00
2019-02-10T03:40:32.075Z,32.60
2019-02-10T03:43:55.739Z,22.77
2019-02-10T03:47:21.948Z,32.80
2019-02-10T03:50:44.641Z,32.33
2019-02-10T03:54:08.525Z,25.17
2019-02-10T03:57:32.089Z,28.07
2019-02-10T04:00:55.760Z,25.20
2019-02-10T04:04:19.505Z,30.43
2019-02-10T04:07:43.218Z,26.87
2019-02-10T04:11:06.853Z,30.40
2019-02-10T04:14:30.572Z,29.57
2019-02-10T04:17:55.810Z,31.50
2019-02-10T04:21:19.423Z,30.17
2019-02-10T04:24:43.233Z,32.47
2019-02-10T04:28:07.113Z,31.27
2019-02-10T04:31:30.802Z,31.67
2019-02-10T04:34:54.467Z,22.40
2019-02-10T04:38:18.241Z,33.13
2019-02-10T04:41:41.818Z,29.03
2019-02-10T04:45:05.683Z,29.10
2019-02-10T04:48:29.438Z,29.23
2019-02-10T04:51:53.041Z,32.10
2019-02-10T04:55:16.617Z,30.30
2019-02-10T04:58:40.295Z,31.77
2019-02-10T05:02:03.866Z,29.43
2019-02-10T05:05:27.612Z,28.33
2019-02-10T05:08:51.046Z,26.60
2019-02-10T05:12:14.655Z,32.30
2019-02-10T05:15:38.098Z,29.30
2019-02-10T05:19:01.596Z,28.70
2019-02-10T05:22:25.105Z,27.87
2019-02-10T05:25:48.635Z,32.47
2019-02-10T05:29:12.082Z,31.73
2019-02-10T05:32:35.726Z,28.10
2019-02-10T05:35:59.281Z,31.80
2019-02-10T05:39:23.049Z,33.90
2019-02-10T05:42:46.545Z,29.17
2019-02-10T05:46:10.114Z,34.27
2019-02-10T05:49:33.790Z,35.80
2019-02-10T05:52:57.306Z,40.60
2019-02-10T05:56:21.103Z,39.77
2019-02-10T05:59:44.531Z,42.00
2019-02-10T06:03:08.188Z,44.93
2019-02-10T06:06:31.831Z,46.27
2019-02-10T06:09:55.376Z,43.37
2019-02-10T06:13:18.976Z,41.03
2019-02-10T06:16:42.444Z,33.57
2019-02-10T06:20:08.611Z,41.90
2019-02-10T06:23:32.201Z,39.47
2019-02-10T06:26:55.728Z,39.10
2019-02-10T06:30:19.232Z,40.03
2019-02-10T06:33:42.813Z,37.67
2019-02-10T06:37:06.351Z,35.60
2019-02-10T06:40:29.835Z,37.03
2019-02-10T06:43:53.706Z,36.40
2019-02-10T06:47:17.362Z,33.90
2019-02-10T06:50:40.948Z,33.20
2019-02-10T06:54:04.466Z,36.23
2019-02-10T06:57:27.947Z,36.13
2019-02-10T07:00:53.087Z,34.57
2019-02-10T07:04:18.271Z,38.20
2019-02-10T07:07:41.913Z,41.37
2019-02-10T07:11:05.408Z,38.07
2019-02-10T07:14:30.913Z,39.03
2019-02-10T07:17:56.631Z,37.50
2019-02-10T07:21:28.686Z,34.67
2019-02-10T07:24:58.318Z,34.87
2019-02-10T07:28:25.051Z,34.70
2019-02-10T07:31:51.674Z,30.77
2019-02-10T07:35:38.393Z,30.53
2019-02-10T07:39:07.851Z,39.37
2019-02-10T07:42:55.923Z,37.60
2019-02-10T07:46:31.410Z,29.90
2019-02-10T07:50:03.936Z,34.47
2019-02-10T07:53:36.608Z,30.80
2019-02-10T07:57:22.472Z,27.57
2019-02-10T08:00:59.490Z,28.67
2019-02-10T08:04:28.877Z,24.43
2019-02-10T08:08:24.613Z,19.80
2019-02-10T08:11:51.635Z,27.23
2019-02-10T08:15:21.586Z,25.73
2019-02-10T08:18:57.158Z,25.83
2019-02-10T08:22:40.456Z,22.40
2019-02-10T08:26:13.251Z,24.30
2019-02-10T08:29:39.985Z,26.30
2019-02-10T08:33:21.704Z,22.50
2019-02-10T08:37:05.338Z,20.30
2019-02-10T08:40:40.894Z,23.67
2019-02-10T08:44:14.465Z,23.83
2019-02-10T08:47:44.237Z,23.00
2019-02-10T08:51:33.704Z,22.73
2019-02-10T08:54:58.229Z,20.37
2019-02-10T08:58:22.830Z,21.20
2019-02-10T09:01:46.524Z,21.53
2019-02-10T09:05:10.415Z,20.30
2019-02-10T09:08:34.212Z,20.43
2019-02-10T09:11:58.677Z,22.03
2019-02-10T09:15:22.656Z,21.87
2019-02-10T09:18:46.417Z,20.67
2019-02-10T09:22:10.379Z,19.73
2019-02-10T09:25:34.167Z,21.13
2019-02-10T09:28:57.996Z,22.17
2019-02-10T09:32:21.717Z,20.80
2019-02-10T09:35:46.411Z,22.07
2019-02-10T09:39:11.158Z,22.40
2019-02-10T09:42:35.129Z,19.53
2019-02-10T09:45:59.228Z,18.63
2019-02-10T09:49:22.927Z,20.93
2019-02-10T09:52:46.726Z,22.80
2019-02-10T09:56:10.755Z,16.77
2019-02-10T09:59:34.584Z,22.23
2019-02-10T10:02:58.367Z,22.03
2019-02-10T10:06:22.718Z,22.90
2019-02-10T10:09:47.647Z,20.67
2019-02-10T10:13:11.636Z,19.60
2019-02-10T10:16:35.626Z,17.27
2019-02-10T10:19:59.630Z,17.97
2019-02-10T10:23:25.184Z,21.17
2019-02-10T10:26:48.936Z,15.60
2019-02-10T10:30:18.468Z,21.70
2019-02-10T10:33:42.233Z,20.03
2019-02-10T10:37:06.563Z,20.07
2019-02-10T10:40:30.103Z,19.03
2019-02-10T10:43:53.873Z,15.80
2019-02-10T10:47:18.496Z,17.40
2019-02-10T10:50:42.271Z,19.10
2019-02-10T10:54:06.505Z,19.70
2019-02-10T10:57:30.253Z,18.50
2019-02-10T11:00:54.146Z,16.83
2019-02-10T11:04:18.400Z,15.60
2019-02-10T11:07:42.185Z,19.03
2019-02-10T11:11:06.168Z,18.33
2019-02-10T11:14:30.170Z,18.60
2019-02-10T11:17:53.929Z,20.43
2019-02-10T11:21:17.700Z,17.57
2019-02-10T11:24:41.389Z,17.63
2019-02-10T11:28:05.038Z,19.27
2019-02-10T11:31:29.051Z,19.20
2019-02-10T11:34:52.840Z,19.20
2019-02-10T11:38:16.812Z,16.67
2019-02-10T11:41:40.815Z,16.63
2019-02-10T11:45:05.827Z,14.90
2019-02-10T11:48:29.306Z,15.20
2019-02-10T11:51:52.836Z,10.93
2019-02-10T11:55:16.514Z,17.13
2019-02-10T11:58:40.055Z,15.40
2019-02-10T12:02:03.768Z,16.17
2019-02-10T12:05:27.290Z,13.47
2019-02-10T12:08:51.012Z,15.23
2019-02-10T12:12:14.570Z,19.50
2019-02-10T12:15:38.350Z,11.40
2019-02-10T12:19:02.127Z,10.23
2019-02-10T12:22:26.015Z,12.07
2019-02-10T12:25:50.597Z,11.23
2019-02-10T12:29:14.139Z,8.97
2019-02-10T12:32:38.213Z,11.57
2019-02-10T12:36:02.150Z,10.63
2019-02-10T12:39:28.090Z,14.63
2019-02-10T12:42:53.924Z,12.63
2019-02-10T12:46:18.041Z,17.57
2019-02-10T12:49:46.067Z,13.90
2019-02-10T12:53:09.658Z,12.77
2019-02-10T12:56:33.361Z,17.83
2019-02-10T12:59:57.033Z,18.07
2019-02-10T13:03:20.553Z,13.00
2019-02-10T13:06:44.271Z,11.60
2019-02-10T13:10:11.830Z,13.60
2019-02-10T13:13:35.328Z,15.17
2019-02-10T13:16:58.950Z,14.17
2019-02-10T13:20:24.283Z,13.73
2019-02-10T13:23:47.923Z,9.30
2019-02-10T13:27:11.538Z,13.83
2019-02-10T13:30:35.333Z,11.10
2019-02-10T13:33:58.973Z,10.70
2019-02-10T13:37:22.674Z,9.80
2019-02-10T13:40:46.117Z,13.90
2019-02-10T13:44:09.974Z,15.77
2019-02-10T13:47:33.410Z,10.87
2019-02-10T13:50:59.586Z,13.43
2019-02-10T13:54:23.009Z,12.93
2019-02-10T13:57:46.723Z,10.43
2019-02-10T14:01:10.546Z,19.13
2019-02-10T14:04:55.048Z,10.57
2019-02-10T14:08:18.760Z,18.90
2019-02-10T14:11:42.343Z,13.60
2019-02-10T14:15:09.387Z,14.17
2019-02-10T14:18:32.959Z,15.63
2019-02-10T14:21:56.781Z,14.73
2019-02-10T14:25:20.350Z,12.00
2019-02-10T14:28:44.224Z,9.70
2019-02-10T14:32:08.805Z,20.33
2019-02-10T14:35:32.466Z,15.10
2019-02-10T14:38:56.275Z,14.67
2019-02-10T14:42:19.946Z,16.63
2019-02-10T14:45:43.436Z,14.90
2019-02-10T14:49:07.068Z,19.73
2019-02-10T14:52:31.000Z,14.93
2019-02-10T14:55:54.860Z,17.50
2019-02-10T14:59:18.546Z,20.97
2019-02-10T15:02:44.446Z,21.23
2019-02-10T15:06:08.143Z,16.17
2019-02-10T15:09:32.122Z,12.93
2019-02-10T15:12:55.712Z,18.13
2019-02-10T15:16:19.476Z,17.10
2019-02-10T15:19:43.569Z,14.83
2019-02-10T15:23:07.218Z,17.00
2019-02-10T15:26:30.881Z,17.13
2019-02-10T15:29:55.548Z,15.73
2019-02-10T15:33:19.243Z,14.50
2019-02-10T15:36:43.205Z,21.37
2019-02-10T15:40:08.885Z,17.33
2019-02-10T15:43:32.787Z,16.97
2019-02-10T15:46:56.326Z,14.93
2019-02-10T15:50:20.145Z,17.43
2019-02-10T15:53:43.776Z,15.10
2019-02-10T15:57:07.396Z,17.37
2019-02-10T16:00:31.472Z,16.20
2019-02-10T16:03:55.036Z,21.97
2019-02-10T16:07:18.819Z,19.10
2019-02-10T16:10:42.609Z,15.53
2019-02-10T16:14:06.257Z,13.93
2019-02-10T16:17:30.044Z,17.93
2019-02-10T16:20:53.688Z,16.60
2019-02-10T16:24:17.652Z,14.07
2019-02-10T16:27:41.257Z,19.63
2019-02-10T16:31:05.273Z,19.30
2019-02-10T16:34:29.250Z,20.63
2019-02-10T16:37:53.049Z,18.60
2019-02-10T16:41:16.714Z,18.90
2019-02-10T16:44:40.277Z,20.47
2019-02-10T16:48:04.064Z,21.47
2019-02-10T16:51:27.653Z,19.00
2019-02-10T16:54:51.512Z,15.87
2019-02-10T16:58:15.291Z,19.27
2019-02-10T17:01:39.144Z,17.50
2019-02-10T17:05:02.737Z,15.90
2019-02-10T17:08:26.383Z,21.33
2019-02-10T17:11:50.472Z,18.87
2019-02-10T17:15:14.107Z,18.47
2019-02-10T17:18:37.988Z,22.23
2019-02-10T17:22:02.052Z,20.10
2019-02-10T17:25:28.544Z,19.87
2019-02-10T17:28:52.264Z,18.80
2019-02-10T17:32:15.938Z,21.33
2019-02-10T17:35:39.729Z,20.70
2019-02-10T17:39:03.774Z,16.73
2019-02-10T17:42:27.929Z,21.33
2019-02-10T17:45:51.567Z,19.30
2019-02-10T17:49:15.214Z,22.43
2019-02-10T17:52:38.911Z,23.10
2019-02-10T17:56:03.006Z,16.47
2019-02-10T17:59:26.706Z,21.50
2019-02-10T18:02:50.626Z,24.10
2019-02-10T18:06:15.184Z,16.70
2019-02-10T18:09:38.884Z,21.63
2019-02-10T18:13:02.492Z,23.70
2019-02-10T18:16:27.794Z,28.73
2019-02-10T18:19:53.087Z,19.07
2019-02-10T18:23:21.423Z,23.00
2019-02-10T18:26:49.658Z,18.77
2019-02-10T18:30:23.829Z,17.43
2019-02-10T18:34:08.384Z,22.83
2019-02-10T18:37:42.855Z,19.97
2019-02-10T18:41:26.552Z,23.40
2019-02-10T18:45:06.873Z,26.70
2019-02-10T18:48:38.403Z,21.27
2019-02-10T18:52:19.057Z,38.30
2019-02-10T18:55:47.351Z,29.03
2019-02-10T18:59:15.527Z,20.87
2019-02-10T19:02:40.959Z,28.00
2019-02-10T19:06:09.532Z,35.03
2019-02-10T19:09:40.730Z,18.03
2019-02-10T19:13:08.716Z,16.13
2019-02-10T19:16:36.694Z,28.97
2019-02-10T19:20:10.912Z,19.27
2019-02-10T19:23:38.900Z,34.33
2019-02-10T19:27:06.586Z,29.27
2019-02-10T19:30:47.055Z,24.07
2019-02-10T19:34:15.260Z,36.93
2019-02-10T19:37:56.759Z,32.37
2019-02-10T19:41:33.949Z,22.13
2019-02-10T19:45:15.906Z,26.40
2019-02-10T19:48:47.501Z,23.13
2019-02-10T19:52:12.699Z,32.17
2019-02-10T19:55:43.684Z,27.93
2019-02-10T19:59:14.958Z,22.43
2019-02-10T20:02:46.239Z,35.70
2019-02-10T20:06:20.274Z,27.67
2019-02-10T20:09:45.629Z,17.93
2019-02-10T20:13:26.031Z,19.47
2019-02-10T20:17:07.486Z,24.73
2019-02-10T20:20:45.265Z,20.73
2019-02-10T20:24:10.609Z,27.40
2019-02-10T20:27:50.835Z,18.13
2019-02-10T20:31:32.976Z,30.90
2019-02-10T20:34:58.543Z,22.60
2019-02-10T20:38:35.988Z,20.63
2019-02-10T20:42:01.308Z,17.47
2019-02-10T20:45:29.825Z,16.30
2019-02-10T20:49:05.568Z,31.33
2019-02-10T20:52:46.378Z,24.90
2019-02-10T20:56:10.239Z,16.50
2019-02-10T20:59:44.704Z,30.73
2019-02-10T21:03:18.961Z,16.50
2019-02-10T21:06:53.323Z,17.07
2019-02-10T21:10:31.295Z,27.70
2019-02-10T21:14:12.932Z,26.90
2019-02-10T21:17:50.301Z,23.63
2019-02-10T21:21:32.390Z,24.63
2019-02-10T21:25:06.769Z,19.07
2019-02-10T21:28:35.130Z,23.57
2019-02-10T21:32:01.845Z,23.97
2019-02-10T21:35:30.213Z,18.47
2019-02-10T21:39:10.836Z,26.23
2019-02-10T21:42:42.180Z,18.97
2019-02-10T21:46:10.366Z,26.40
2019-02-10T21:49:34.148Z,24.57
2019-02-10T21:52:57.716Z,27.10
2019-02-10T21:56:21.591Z,21.73
2019-02-10T21:59:45.255Z,28.97
2019-02-10T22:03:09.717Z,25.20
2019-02-10T22:06:33.278Z,16.97
2019-02-10T22:09:57.015Z,16.47
2019-02-10T22:13:20.702Z,22.70
2019-02-10T22:16:44.363Z,20.93
2019-02-10T22:20:12.234Z,25.60
2019-02-10T22:23:36.030Z,25.87
2019-02-10T22:26:59.706Z,28.53
2019-02-10T22:30:23.484Z,20.90
2019-02-10T22:33:51.538Z,27.43
2019-02-10T22:37:12.983Z,23.73
2019-02-10T22:40:37.468Z,20.90
2019-02-10T22:44:01.109Z,30.27
2019-02-10T22:47:24.865Z,24.30
2019-02-10T22:50:48.723Z,15.07
2019-02-10T22:54:12.447Z,25.30
2019-02-10T22:57:36.238Z,29.47
2019-02-10T23:01:01.232Z,26.13
2019-02-10T23:04:25.145Z,20.63
2019-02-10T23:07:48.884Z,26.17
2019-02-10T23:11:12.663Z,21.07
2019-02-10T23:14:36.358Z,24.07
2019-02-10T23:18:00.007Z,26.40
2019-02-10T23:21:23.746Z,30.70
2019-02-10T23:24:47.411Z,25.10
2019-02-10T23:28:10.971Z,20.60
2019-02-10T23:31:34.558Z,23.97
2019-02-10T23:34:57.989Z,26.37
2019-02-10T23:38:21.715Z,25.20
2019-02-10T23:41:46.196Z,30.23
2019-02-10T23:45:09.943Z,26.23
2019-02-10T23:48:33.546Z,23.30
2019-02-10T23:51:57.403Z,28.53
2019-02-10T23:55:21.117Z,28.97
2019-02-10T23:58:44.653Z,25.67
